sensor_id;sensor_type;location;lat;lon;timestamp;pressure;altitude;pressure_sealevel;temperature
64184;BMP280;50485;49.768;8.636;2022-09-23T00:02:08;100550.09;;;20.13
64184;BMP280;50485;49.768;8.636;2022-09-23T00:04:34;100557.13;;;20.14
64184;BMP280;50485;49.768;8.636;2022-09-23T00:06:59;100546.25;;;20.14
64184;BMP280;50485;49.768;8.636;2022-09-23T00:09:25;100547.03;;;20.15
64184;BMP280;50485;49.768;8.636;2022-09-23T00:11:50;100543.06;;;20.12
64184;BMP280;50485;49.768;8.636;2022-09-23T00:14:15;100548.50;;;20.12
64184;BMP280;50485;49.768;8.636;2022-09-23T00:16:41;100550.09;;;20.13
64184;BMP280;50485;49.768;8.636;2022-09-23T00:19:06;100551.97;;;20.09
64184;BMP280;50485;49.768;8.636;2022-09-23T00:21:31;100543.47;;;20.11
64184;BMP280;50485;49.768;8.636;2022-09-23T00:23:57;100545.38;;;20.10
64184;BMP280;50485;49.768;8.636;2022-09-23T00:26:22;100538.38;;;20.09
64184;BMP280;50485;49.768;8.636;2022-09-23T00:28:48;100541.88;;;20.10
64184;BMP280;50485;49.768;8.636;2022-09-23T00:31:14;100543.81;;;20.09
64184;BMP280;50485;49.768;8.636;2022-09-23T00:33:40;100542.22;;;20.08
64184;BMP280;50485;49.768;8.636;2022-09-23T00:36:05;100536.78;;;20.08
64184;BMP280;50485;49.768;8.636;2022-09-23T00:38:31;100536.38;;;20.06
64184;BMP280;50485;49.768;8.636;2022-09-23T00:40:58;100540.66;;;20.07
64184;BMP280;50485;49.768;8.636;2022-09-23T00:46:08;100530.50;;;20.04
64184;BMP280;50485;49.768;8.636;2022-09-23T00:48:33;100529.69;;;20.03
64184;BMP280;50485;49.768;8.636;2022-09-23T00:50:59;100540.25;;;20.05
64184;BMP280;50485;49.768;8.636;2022-09-23T00:53:25;100529.69;;;20.03
64184;BMP280;50485;49.768;8.636;2022-09-23T00:55:54;100525.06;;;20.04
64184;BMP280;50485;49.768;8.636;2022-09-23T00:58:22;100525.81;;;20.01
64184;BMP280;50485;49.768;8.636;2022-09-23T01:00:48;100517.63;;;20.01
64184;BMP280;50485;49.768;8.636;2022-09-23T01:03:14;100521.16;;;20.01
64184;BMP280;50485;49.768;8.636;2022-09-23T01:05:39;100517.63;;;20.01
64184;BMP280;50485;49.768;8.636;2022-09-23T01:08:06;100521.94;;;20.02
64184;BMP280;50485;49.768;8.636;2022-09-23T01:10:34;100515.72;;;20.01
64184;BMP280;50485;49.768;8.636;2022-09-23T01:13:10;100509.81;;;19.99
64184;BMP280;50485;49.768;8.636;2022-09-23T01:15:47;100512.53;;;19.99
64184;BMP280;50485;49.768;8.636;2022-09-23T01:21:58;100505.53;;;19.98
64184;BMP280;50485;49.768;8.636;2022-09-23T01:32:13;100503.19;;;19.97
64184;BMP280;50485;49.768;8.636;2022-09-23T01:34:53;100496.94;;;19.96
64184;BMP280;50485;49.768;8.636;2022-09-23T01:37:23;100500.81;;;19.95
64184;BMP280;50485;49.768;8.636;2022-09-23T01:40:02;100500.03;;;19.95
64184;BMP280;50485;49.768;8.636;2022-09-23T01:42:31;100499.97;;;19.91
64184;BMP280;50485;49.768;8.636;2022-09-23T01:45:01;100491.44;;;19.93
64184;BMP280;50485;49.768;8.636;2022-09-23T01:47:34;100496.88;;;19.93
64184;BMP280;50485;49.768;8.636;2022-09-23T01:50:05;100488.38;;;19.94
64184;BMP280;50485;49.768;8.636;2022-09-23T01:52:50;100497.69;;;19.93
64184;BMP280;50485;49.768;8.636;2022-09-23T01:55:21;100490.66;;;19.92
64184;BMP280;50485;49.768;8.636;2022-09-23T01:57:47;100491.03;;;19.91
64184;BMP280;50485;49.768;8.636;2022-09-23T02:00:14;100487.88;;;19.89
64184;BMP280;50485;49.768;8.636;2022-09-23T02:02:42;100494.47;;;19.88
64184;BMP280;50485;49.768;8.636;2022-09-23T02:05:15;100490.97;;;19.87
64184;BMP280;50485;49.768;8.636;2022-09-23T02:07:50;100492.91;;;19.87
64184;BMP280;50485;49.768;8.636;2022-09-23T02:10:20;100487.47;;;19.87
64184;BMP280;50485;49.768;8.636;2022-09-23T02:12:49;100487.88;;;19.89
64184;BMP280;50485;49.768;8.636;2022-09-23T02:15:17;100498.78;;;19.89
64184;BMP280;50485;49.768;8.636;2022-09-23T02:17:57;100495.63;;;19.87
64184;BMP280;50485;49.768;8.636;2022-09-23T02:20:27;100492.91;;;19.87
64184;BMP280;50485;49.768;8.636;2022-09-23T02:23:16;100490.13;;;19.83
64184;BMP280;50485;49.768;8.636;2022-09-23T02:28:08;100478.44;;;19.83
64184;BMP280;50485;49.768;8.636;2022-09-23T02:30:37;100476.88;;;19.82
64184;BMP280;50485;49.768;8.636;2022-09-23T02:33:07;100477.66;;;19.82
64184;BMP280;50485;49.768;8.636;2022-09-23T02:35:37;100476.53;;;19.83
64184;BMP280;50485;49.768;8.636;2022-09-23T02:40:40;100470.28;;;19.83
64184;BMP280;50485;49.768;8.636;2022-09-23T02:43:11;100478.81;;;19.81
64184;BMP280;50485;49.768;8.636;2022-09-23T02:45:39;100472.22;;;19.82
64184;BMP280;50485;49.768;8.636;2022-09-23T02:48:05;100472.94;;;19.79
64184;BMP280;50485;49.768;8.636;2022-09-23T02:50:31;100468.66;;;19.78
64184;BMP280;50485;49.768;8.636;2022-09-23T02:52:58;100471.75;;;19.77
64184;BMP280;50485;49.768;8.636;2022-09-23T02:55:23;100460.16;;;19.80
64184;BMP280;50485;49.768;8.636;2022-09-23T02:57:49;100457.78;;;19.78
64184;BMP280;50485;49.768;8.636;2022-09-23T03:00:16;100453.13;;;19.79
64184;BMP280;50485;49.768;8.636;2022-09-23T03:05:28;100456.22;;;19.77
64184;BMP280;50485;49.768;8.636;2022-09-23T03:10:33;100444.56;;;19.77
64184;BMP280;50485;49.768;8.636;2022-09-23T03:13:16;100442.97;;;19.75
64184;BMP280;50485;49.768;8.636;2022-09-23T03:15:48;100439.47;;;19.75
64184;BMP280;50485;49.768;8.636;2022-09-23T03:18:18;100445.69;;;19.75
64184;BMP280;50485;49.768;8.636;2022-09-23T03:20:55;100438.69;;;19.74
64184;BMP280;50485;49.768;8.636;2022-09-23T03:23:23;100432.88;;;19.76
64184;BMP280;50485;49.768;8.636;2022-09-23T03:25:50;100438.28;;;19.72
64184;BMP280;50485;49.768;8.636;2022-09-23T03:28:18;100439.84;;;19.73
64184;BMP280;50485;49.768;8.636;2022-09-23T03:30:46;100442.56;;;19.73
64184;BMP280;50485;49.768;8.636;2022-09-23T03:33:11;100438.28;;;19.72
64184;BMP280;50485;49.768;8.636;2022-09-23T03:35:50;100435.91;;;19.71
64184;BMP280;50485;49.768;8.636;2022-09-23T03:38:36;100438.69;;;19.74
64184;BMP280;50485;49.768;8.636;2022-09-23T03:41:02;100441.00;;;19.72
64184;BMP280;50485;49.768;8.636;2022-09-23T03:43:28;100435.13;;;19.70
64184;BMP280;50485;49.768;8.636;2022-09-23T03:45:53;100427.41;;;19.72
64184;BMP280;50485;49.768;8.636;2022-09-23T03:48:24;100431.25;;;19.71
64184;BMP280;50485;49.768;8.636;2022-09-23T03:50:50;100420.38;;;19.71
64184;BMP280;50485;49.768;8.636;2022-09-23T03:53:15;100424.25;;;19.70
64184;BMP280;50485;49.768;8.636;2022-09-23T03:55:42;100425.03;;;19.71
64184;BMP280;50485;49.768;8.636;2022-09-23T03:58:07;100421.91;;;19.69
64184;BMP280;50485;49.768;8.636;2022-09-23T04:00:32;100422.69;;;19.69
64184;BMP280;50485;49.768;8.636;2022-09-23T04:03:00;100422.25;;;19.67
64184;BMP280;50485;49.768;8.636;2022-09-23T04:05:25;100413.34;;;19.67
64184;BMP280;50485;49.768;8.636;2022-09-23T04:07:50;100417.97;;;19.66
64184;BMP280;50485;49.768;8.636;2022-09-23T04:10:16;100417.97;;;19.66
64184;BMP280;50485;49.768;8.636;2022-09-23T04:12:41;100415.25;;;19.66
64184;BMP280;50485;49.768;8.636;2022-09-23T04:15:06;100416.38;;;19.65
64184;BMP280;50485;49.768;8.636;2022-09-23T04:17:31;100409.38;;;19.64
64184;BMP280;50485;49.768;8.636;2022-09-23T04:19:57;100423.41;;;19.66
64184;BMP280;50485;49.768;8.636;2022-09-23T04:22:22;100419.09;;;19.65
64184;BMP280;50485;49.768;8.636;2022-09-23T04:24:47;100411.31;;;19.64
64184;BMP280;50485;49.768;8.636;2022-09-23T04:27:13;100412.88;;;19.65
64184;BMP280;50485;49.768;8.636;2022-09-23T04:29:38;100407.81;;;19.63
64184;BMP280;50485;49.768;8.636;2022-09-23T04:32:03;100412.09;;;19.64
64184;BMP280;50485;49.768;8.636;2022-09-23T04:34:28;100414.03;;;19.64
64184;BMP280;50485;49.768;8.636;2022-09-23T04:36:53;100417.16;;;19.62
64184;BMP280;50485;49.768;8.636;2022-09-23T04:39:19;100418.25;;;19.61
64184;BMP280;50485;49.768;8.636;2022-09-23T04:41:44;100423.34;;;19.63
64184;BMP280;50485;49.768;8.636;2022-09-23T04:44:10;100428.78;;;19.63
64184;BMP280;50485;49.768;8.636;2022-09-23T04:46:35;100434.22;;;19.63
64184;BMP280;50485;49.768;8.636;2022-09-23T04:49:01;100431.50;;;19.63
64184;BMP280;50485;49.768;8.636;2022-09-23T04:51:27;100437.72;;;19.63
64184;BMP280;50485;49.768;8.636;2022-09-23T04:53:53;100436.16;;;19.62
64184;BMP280;50485;49.768;8.636;2022-09-23T04:56:22;100445.44;;;19.61
64184;BMP280;50485;49.768;8.636;2022-09-23T04:58:48;100440.38;;;19.60
64184;BMP280;50485;49.768;8.636;2022-09-23T05:01:15;100436.50;;;19.61
64184;BMP280;50485;49.768;8.636;2022-09-23T05:03:41;100435.72;;;19.60
64184;BMP280;50485;49.768;8.636;2022-09-23T05:06:07;100446.22;;;19.62
64184;BMP280;50485;49.768;8.636;2022-09-23T05:08:33;100444.34;;;19.62
64184;BMP280;50485;49.768;8.636;2022-09-23T05:10:59;100441.94;;;19.61
64184;BMP280;50485;49.768;8.636;2022-09-23T05:13:24;100441.16;;;19.60
64184;BMP280;50485;49.768;8.636;2022-09-23T05:15:55;100447.38;;;19.61
64184;BMP280;50485;49.768;8.636;2022-09-23T05:18:21;100445.09;;;19.63
64184;BMP280;50485;49.768;8.636;2022-09-23T05:20:51;100438.91;;;19.62
64184;BMP280;50485;49.768;8.636;2022-09-23T05:23:16;100442.72;;;19.61
64184;BMP280;50485;49.768;8.636;2022-09-23T05:25:41;100442.00;;;19.64
64184;BMP280;50485;49.768;8.636;2022-09-23T05:28:09;100442.78;;;19.65
64184;BMP280;50485;49.768;8.636;2022-09-23T05:30:34;100441.22;;;19.64
64184;BMP280;50485;49.768;8.636;2022-09-23T05:32:59;100440.44;;;19.63
64184;BMP280;50485;49.768;8.636;2022-09-23T05:35:25;100435.84;;;19.67
64184;BMP280;50485;49.768;8.636;2022-09-23T05:37:50;100440.84;;;19.65
64184;BMP280;50485;49.768;8.636;2022-09-23T05:40:16;100442.84;;;19.68
64184;BMP280;50485;49.768;8.636;2022-09-23T05:42:41;100442.09;;;19.71
64184;BMP280;50485;49.768;8.636;2022-09-23T05:45:06;100450.72;;;19.73
64184;BMP280;50485;49.768;8.636;2022-09-23T05:47:32;100454.72;;;19.80
64184;BMP280;50485;49.768;8.636;2022-09-23T05:49:57;100459.47;;;19.86
64184;BMP280;50485;49.768;8.636;2022-09-23T05:52:23;100454.38;;;19.85
64184;BMP280;50485;49.768;8.636;2022-09-23T05:54:49;100462.78;;;19.99
64184;BMP280;50485;49.768;8.636;2022-09-23T05:57:14;100464.50;;;20.07
64184;BMP280;50485;49.768;8.636;2022-09-23T05:59:39;100457.72;;;20.24
64184;BMP280;50485;49.768;8.636;2022-09-23T06:02:06;100459.44;;;20.32
64184;BMP280;50485;49.768;8.636;2022-09-23T06:04:32;100467.66;;;20.35
64184;BMP280;50485;49.768;8.636;2022-09-23T06:06:57;100462.09;;;20.28
64184;BMP280;50485;49.768;8.636;2022-09-23T06:09:22;100456.66;;;20.28
64184;BMP280;50485;49.768;8.636;2022-09-23T06:11:47;100461.13;;;20.40
64184;BMP280;50485;49.768;8.636;2022-09-23T06:14:14;100463.38;;;20.64
64184;BMP280;50485;49.768;8.636;2022-09-23T06:16:40;100466.75;;;20.84
64184;BMP280;50485;49.768;8.636;2022-09-23T06:19:05;100461.81;;;20.93
64184;BMP280;50485;49.768;8.636;2022-09-23T06:21:31;100456.16;;;20.79
64184;BMP280;50485;49.768;8.636;2022-09-23T06:23:56;100459.72;;;20.83
64184;BMP280;50485;49.768;8.636;2022-09-23T06:26:24;100446.88;;;20.80
64184;BMP280;50485;49.768;8.636;2022-09-23T06:28:49;100443.75;;;20.78
64184;BMP280;50485;49.768;8.636;2022-09-23T06:31:15;100447.69;;;20.84
64184;BMP280;50485;49.768;8.636;2022-09-23T06:33:41;100439.03;;;20.79
64184;BMP280;50485;49.768;8.636;2022-09-23T06:36:07;100435.09;;;20.73
64184;BMP280;50485;49.768;8.636;2022-09-23T06:38:32;100436.66;;;20.70
64184;BMP280;50485;49.768;8.636;2022-09-23T06:40:58;100444.03;;;20.70
64184;BMP280;50485;49.768;8.636;2022-09-23T06:43:24;100447.53;;;20.70
64184;BMP280;50485;49.768;8.636;2022-09-23T06:45:53;100444.41;;;20.72
64184;BMP280;50485;49.768;8.636;2022-09-23T06:48:18;100440.53;;;20.73
64184;BMP280;50485;49.768;8.636;2022-09-23T06:50:44;100438.63;;;20.73
64184;BMP280;50485;49.768;8.636;2022-09-23T06:53:09;100440.19;;;20.74
64184;BMP280;50485;49.768;8.636;2022-09-23T06:55:34;100438.66;;;20.77
64184;BMP280;50485;49.768;8.636;2022-09-23T06:57:59;100432.06;;;20.78
64184;BMP280;50485;49.768;8.636;2022-09-23T07:00:24;100430.16;;;20.82
64184;BMP280;50485;49.768;8.636;2022-09-23T07:02:50;100436.03;;;20.84
64184;BMP280;50485;49.768;8.636;2022-09-23T07:05:15;100434.13;;;20.88
64184;BMP280;50485;49.768;8.636;2022-09-23T07:07:41;100431.44;;;20.91
64184;BMP280;50485;49.768;8.636;2022-09-23T07:10:06;100443.59;;;20.98
64184;BMP280;50485;49.768;8.636;2022-09-23T07:12:32;100447.50;;;21.04
64184;BMP280;50485;49.768;8.636;2022-09-23T07:14:57;100440.63;;;21.13
64184;BMP280;50485;49.768;8.636;2022-09-23T07:17:23;100443.03;;;21.18
64184;BMP280;50485;49.768;8.636;2022-09-23T07:19:48;100445.16;;;21.32
64184;BMP280;50485;49.768;8.636;2022-09-23T07:22:13;100438.59;;;21.40
64184;BMP280;50485;49.768;8.636;2022-09-23T07:24:39;100438.25;;;21.49
64184;BMP280;50485;49.768;8.636;2022-09-23T07:27:04;100456.25;;;21.57
64184;BMP280;50485;49.768;8.636;2022-09-23T07:29:29;100449.31;;;21.67
64184;BMP280;50485;49.768;8.636;2022-09-23T07:31:55;100456.03;;;21.73
64184;BMP280;50485;49.768;8.636;2022-09-23T07:34:20;100447.88;;;21.80
64184;BMP280;50485;49.768;8.636;2022-09-23T07:36:46;100448.75;;;21.87
64184;BMP280;50485;49.768;8.636;2022-09-23T07:39:11;100456.19;;;21.98
64184;BMP280;50485;49.768;8.636;2022-09-23T07:41:36;100451.94;;;22.00
64184;BMP280;50485;49.768;8.636;2022-09-23T07:44:02;100459.81;;;22.12
64184;BMP280;50485;49.768;8.636;2022-09-23T07:46:30;100460.69;;;22.24
64184;BMP280;50485;49.768;8.636;2022-09-23T07:48:56;100461.16;;;22.36
64184;BMP280;50485;49.768;8.636;2022-09-23T07:51:23;100461.22;;;22.47
64184;BMP280;50485;49.768;8.636;2022-09-23T07:53:49;100463.22;;;22.57
64184;BMP280;50485;49.768;8.636;2022-09-23T07:56:15;100459.34;;;22.65
64184;BMP280;50485;49.768;8.636;2022-09-23T07:58:41;100462.13;;;22.79
64184;BMP280;50485;49.768;8.636;2022-09-23T08:01:07;100468.03;;;22.89
64184;BMP280;50485;49.768;8.636;2022-09-23T08:03:32;100470.78;;;22.96
64184;BMP280;50485;49.768;8.636;2022-09-23T08:06:09;100467.66;;;23.01
64184;BMP280;50485;49.768;8.636;2022-09-23T08:08:35;100471.97;;;23.05
64184;BMP280;50485;49.768;8.636;2022-09-23T08:11:03;100472.78;;;23.09
64184;BMP280;50485;49.768;8.636;2022-09-23T08:13:29;100474.34;;;23.18
64184;BMP280;50485;49.768;8.636;2022-09-23T08:15:54;100472.41;;;23.25
64184;BMP280;50485;49.768;8.636;2022-09-23T08:18:20;100474.38;;;23.28
64184;BMP280;50485;49.768;8.636;2022-09-23T08:20:45;100474.38;;;23.32
64184;BMP280;50485;49.768;8.636;2022-09-23T08:23:11;100476.34;;;23.35
64184;BMP280;50485;49.768;8.636;2022-09-23T08:25:37;100478.69;;;23.33
64184;BMP280;50485;49.768;8.636;2022-09-23T08:28:03;100488.06;;;23.50
64184;BMP280;50485;49.768;8.636;2022-09-23T08:30:28;100479.88;;;23.60
64184;BMP280;50485;49.768;8.636;2022-09-23T08:32:53;100483.00;;;23.73
64184;BMP280;50485;49.768;8.636;2022-09-23T08:35:18;100478.72;;;23.79
64184;BMP280;50485;49.768;8.636;2022-09-23T08:37:44;100484.16;;;23.90
64184;BMP280;50485;49.768;8.636;2022-09-23T08:40:09;100475.19;;;24.10
64184;BMP280;50485;49.768;8.636;2022-09-23T08:42:34;100471.19;;;24.22
64184;BMP280;50485;49.768;8.636;2022-09-23T08:45:03;100475.06;;;24.46
64184;BMP280;50485;49.768;8.636;2022-09-23T08:55:13;100480.50;;;25.30
64184;BMP280;50485;49.768;8.636;2022-09-23T09:00:12;100485.91;;;25.40
64184;BMP280;50485;49.768;8.636;2022-09-23T09:02:38;100482.63;;;25.60
64184;BMP280;50485;49.768;8.636;2022-09-23T09:05:06;100473.03;;;25.75
64184;BMP280;50485;49.768;8.636;2022-09-23T09:07:34;100472.66;;;25.77
64184;BMP280;50485;49.768;8.636;2022-09-23T09:10:04;100472.84;;;25.96
64184;BMP280;50485;49.768;8.636;2022-09-23T09:15:06;100466.16;;;26.35
64184;BMP280;50485;49.768;8.636;2022-09-23T09:20:06;100471.03;;;26.54
64184;BMP280;50485;49.768;8.636;2022-09-23T09:22:46;100465.59;;;26.78
64184;BMP280;50485;49.768;8.636;2022-09-23T09:27:48;100466.81;;;26.77
64184;BMP280;50485;49.768;8.636;2022-09-23T09:30:13;100461.44;;;26.93
64184;BMP280;50485;49.768;8.636;2022-09-23T09:32:47;100454.75;;;26.94
64184;BMP280;50485;49.768;8.636;2022-09-23T09:37:57;100449.31;;;26.63
64184;BMP280;50485;49.768;8.636;2022-09-23T09:40:22;100448.25;;;26.81
64184;BMP280;50485;49.768;8.636;2022-09-23T09:42:48;100445.00;;;26.89
64184;BMP280;50485;49.768;8.636;2022-09-23T09:48:13;100444.38;;;27.05
64184;BMP280;50485;49.768;8.636;2022-09-23T09:50:48;100430.50;;;26.85
64184;BMP280;50485;49.768;8.636;2022-09-23T09:55:55;100416.22;;;24.75
64184;BMP280;50485;49.768;8.636;2022-09-23T09:58:22;100414.91;;;24.21
64184;BMP280;50485;49.768;8.636;2022-09-23T10:00:47;100405.97;;;23.99
64184;BMP280;50485;49.768;8.636;2022-09-23T10:06:28;100401.72;;;23.73
64184;BMP280;50485;49.768;8.636;2022-09-23T10:09:10;100399.75;;;23.67
64184;BMP280;50485;49.768;8.636;2022-09-23T10:11:36;100399.78;;;23.60
64184;BMP280;50485;49.768;8.636;2022-09-23T10:14:11;100391.19;;;23.58
64184;BMP280;50485;49.768;8.636;2022-09-23T10:16:37;100393.53;;;23.52
64184;BMP280;50485;49.768;8.636;2022-09-23T10:19:10;100387.66;;;23.46
64184;BMP280;50485;49.768;8.636;2022-09-23T10:21:37;100389.25;;;23.40
64184;BMP280;50485;49.768;8.636;2022-09-23T10:24:03;100399.75;;;23.35
64184;BMP280;50485;49.768;8.636;2022-09-23T10:26:42;100402.50;;;23.31
64184;BMP280;50485;49.768;8.636;2022-09-23T10:29:19;100396.25;;;23.27
64184;BMP280;50485;49.768;8.636;2022-09-23T10:31:47;100395.84;;;23.22
64184;BMP280;50485;49.768;8.636;2022-09-23T10:34:26;100390.00;;;23.16
64184;BMP280;50485;49.768;8.636;2022-09-23T10:37:01;100386.88;;;23.14
64184;BMP280;50485;49.768;8.636;2022-09-23T10:39:29;100382.56;;;23.09
64184;BMP280;50485;49.768;8.636;2022-09-23T10:42:18;100387.22;;;23.05
64184;BMP280;50485;49.768;8.636;2022-09-23T10:45:08;100389.94;;;23.02
64184;BMP280;50485;49.768;8.636;2022-09-23T10:50:46;100374.72;;;22.94
64184;BMP280;50485;49.768;8.636;2022-09-23T10:53:20;100373.94;;;22.90
64184;BMP280;50485;49.768;8.636;2022-09-23T10:55:53;100372.41;;;22.89
64184;BMP280;50485;49.768;8.636;2022-09-23T11:10:53;100364.53;;;22.73
64184;BMP280;50485;49.768;8.636;2022-09-23T11:14:24;100357.91;;;22.70
64184;BMP280;50485;49.768;8.636;2022-09-23T11:24:05;100340.31;;;22.61
64184;BMP280;50485;49.768;8.636;2022-09-23T11:29:05;100338.72;;;22.60
64184;BMP280;50485;49.768;8.636;2022-09-23T11:34:06;100333.69;;;22.58
64184;BMP280;50485;49.768;8.636;2022-09-23T11:36:56;100336.00;;;22.56
64184;BMP280;50485;49.768;8.636;2022-09-23T11:39:22;100335.63;;;22.54
64184;BMP280;50485;49.768;8.636;2022-09-23T11:41:52;100332.13;;;22.54
64184;BMP280;50485;49.768;8.636;2022-09-23T11:44:22;100329.75;;;22.52
64184;BMP280;50485;49.768;8.636;2022-09-23T11:46:54;100323.91;;;22.50
64184;BMP280;50485;49.768;8.636;2022-09-23T11:49:35;100328.97;;;22.48
64184;BMP280;50485;49.768;8.636;2022-09-23T11:52:13;100316.06;;;22.45
64184;BMP280;50485;49.768;8.636;2022-09-23T12:00:00;100321.16;;;22.43
64184;BMP280;50485;49.768;8.636;2022-09-23T12:05:08;100314.50;;;22.40
64184;BMP280;50485;49.768;8.636;2022-09-23T12:10:18;100307.88;;;22.41
64184;BMP280;50485;49.768;8.636;2022-09-23T12:12:46;100308.25;;;22.40
64184;BMP280;50485;49.768;8.636;2022-09-23T12:28:10;100293.81;;;22.36
64184;BMP280;50485;49.768;8.636;2022-09-23T12:30:37;100298.50;;;22.35
64184;BMP280;50485;49.768;8.636;2022-09-23T12:33:13;100290.69;;;22.34
64184;BMP280;50485;49.768;8.636;2022-09-23T12:35:41;100286.03;;;22.34
64184;BMP280;50485;49.768;8.636;2022-09-23T12:40:38;100283.69;;;22.36
64184;BMP280;50485;49.768;8.636;2022-09-23T12:48:47;100281.72;;;22.30
64184;BMP280;50485;49.768;8.636;2022-09-23T12:51:22;100278.59;;;22.31
64184;BMP280;50485;49.768;8.636;2022-09-23T12:56:21;100266.47;;;22.29
64184;BMP280;50485;49.768;8.636;2022-09-23T13:01:19;100266.47;;;22.29
64184;BMP280;50485;49.768;8.636;2022-09-23T13:03:48;100271.56;;;22.30
64184;BMP280;50485;49.768;8.636;2022-09-23T13:06:38;100266.13;;;22.30
64184;BMP280;50485;49.768;8.636;2022-09-23T13:09:14;100262.59;;;22.30
64184;BMP280;50485;49.768;8.636;2022-09-23T13:11:41;100261.81;;;22.29
64184;BMP280;50485;49.768;8.636;2022-09-23T13:14:08;100255.56;;;22.29
64184;BMP280;50485;49.768;8.636;2022-09-23T13:16:40;100259.88;;;22.26
64184;BMP280;50485;49.768;8.636;2022-09-23T13:27:01;100251.25;;;22.20
64184;BMP280;50485;49.768;8.636;2022-09-23T13:29:37;100248.53;;;22.20
64184;BMP280;50485;49.768;8.636;2022-09-23T13:32:04;100242.31;;;22.20
64184;BMP280;50485;49.768;8.636;2022-09-23T13:34:35;100244.63;;;22.18
64184;BMP280;50485;49.768;8.636;2022-09-23T13:37:19;100239.16;;;22.18
64184;BMP280;50485;49.768;8.636;2022-09-23T13:39:44;100241.53;;;22.19
64184;BMP280;50485;49.768;8.636;2022-09-23T13:42:12;100232.91;;;22.17
64184;BMP280;50485;49.768;8.636;2022-09-23T13:44:41;100223.56;;;22.18
64184;BMP280;50485;49.768;8.636;2022-09-23T13:47:09;100229.81;;;22.19
64184;BMP280;50485;49.768;8.636;2022-09-23T13:49:36;100230.63;;;22.19
64184;BMP280;50485;49.768;8.636;2022-09-23T13:52:02;100216.97;;;22.19
64184;BMP280;50485;49.768;8.636;2022-09-23T13:54:34;100229.41;;;22.20
64184;BMP280;50485;49.768;8.636;2022-09-23T13:57:21;100209.56;;;22.20
64184;BMP280;50485;49.768;8.636;2022-09-23T13:59:47;100209.56;;;22.20
64184;BMP280;50485;49.768;8.636;2022-09-23T14:02:14;100207.19;;;22.18
64184;BMP280;50485;49.768;8.636;2022-09-23T14:04:40;100200.94;;;22.18
64184;BMP280;50485;49.768;8.636;2022-09-23T14:07:06;100204.84;;;22.17
64184;BMP280;50485;49.768;8.636;2022-09-23T14:09:31;100209.13;;;22.14
64184;BMP280;50485;49.768;8.636;2022-09-23T14:11:58;100199.38;;;22.13
64184;BMP280;50485;49.768;8.636;2022-09-23T14:14:24;100193.53;;;22.11
64184;BMP280;50485;49.768;8.636;2022-09-23T14:16:50;100188.47;;;22.13
64184;BMP280;50485;49.768;8.636;2022-09-23T14:19:16;100190.03;;;22.14
64184;BMP280;50485;49.768;8.636;2022-09-23T14:21:42;100187.28;;;22.14
64184;BMP280;50485;49.768;8.636;2022-09-23T14:24:12;100184.56;;;22.14
64184;BMP280;50485;49.768;8.636;2022-09-23T14:26:37;100185.34;;;22.11
64184;BMP280;50485;49.768;8.636;2022-09-23T14:29:03;100193.53;;;22.15
64184;BMP280;50485;49.768;8.636;2022-09-23T14:31:29;100179.09;;;22.14
64184;BMP280;50485;49.768;8.636;2022-09-23T14:33:56;100186.50;;;22.14
64184;BMP280;50485;49.768;8.636;2022-09-23T14:36:21;100180.69;;;22.12
64184;BMP280;50485;49.768;8.636;2022-09-23T14:39:07;100177.16;;;22.11
64184;BMP280;50485;49.768;8.636;2022-09-23T14:41:37;100178.31;;;22.10
64184;BMP280;50485;49.768;8.636;2022-09-23T14:44:03;100168.19;;;22.11
64184;BMP280;50485;49.768;8.636;2022-09-23T14:46:29;100176.38;;;22.07
64184;BMP280;50485;49.768;8.636;2022-09-23T14:51:27;100170.13;;;22.07
64184;BMP280;50485;49.768;8.636;2022-09-23T14:53:53;100175.16;;;22.05
64184;BMP280;50485;49.768;8.636;2022-09-23T14:56:19;100164.66;;;22.03
64184;BMP280;50485;49.768;8.636;2022-09-23T14:58:46;100160.38;;;21.99
64184;BMP280;50485;49.768;8.636;2022-09-23T15:03:56;100156.47;;;21.96
64184;BMP280;50485;49.768;8.636;2022-09-23T15:06:22;100160.38;;;21.95
64184;BMP280;50485;49.768;8.636;2022-09-23T15:08:48;100165.81;;;21.95
64184;BMP280;50485;49.768;8.636;2022-09-23T15:11:14;100167.38;;;21.96
64184;BMP280;50485;49.768;8.636;2022-09-23T15:13:40;100166.97;;;21.94
64184;BMP280;50485;49.768;8.636;2022-09-23T15:16:05;100166.97;;;21.94
64184;BMP280;50485;49.768;8.636;2022-09-23T15:18:34;100156.44;;;21.93
64184;BMP280;50485;49.768;8.636;2022-09-23T15:21:10;100150.22;;;21.92
64184;BMP280;50485;49.768;8.636;2022-09-23T15:26:05;100156.84;;;21.91
64184;BMP280;50485;49.768;8.636;2022-09-23T15:28:31;100145.94;;;21.91
64184;BMP280;50485;49.768;8.636;2022-09-23T15:30:56;100146.31;;;21.93
64184;BMP280;50485;49.768;8.636;2022-09-23T15:33:21;100156.03;;;21.94
64184;BMP280;50485;49.768;8.636;2022-09-23T15:35:51;100146.31;;;21.93
64184;BMP280;50485;49.768;8.636;2022-09-23T15:38:17;100150.22;;;21.92
64184;BMP280;50485;49.768;8.636;2022-09-23T15:40:42;100154.91;;;21.92
64184;BMP280;50485;49.768;8.636;2022-09-23T15:43:15;100158.00;;;21.90
64184;BMP280;50485;49.768;8.636;2022-09-23T15:45:42;100156.44;;;21.89
64184;BMP280;50485;49.768;8.636;2022-09-23T15:48:15;100154.47;;;21.89
64184;BMP280;50485;49.768;8.636;2022-09-23T15:50:41;100154.91;;;21.88
64184;BMP280;50485;49.768;8.636;2022-09-23T15:53:06;100154.47;;;21.89
64184;BMP280;50485;49.768;8.636;2022-09-23T15:55:32;100157.63;;;21.88
64184;BMP280;50485;49.768;8.636;2022-09-23T15:57:58;100153.69;;;21.89
64184;BMP280;50485;49.768;8.636;2022-09-23T16:00:23;100157.63;;;21.88
64184;BMP280;50485;49.768;8.636;2022-09-23T16:02:48;100144.72;;;21.85
64184;BMP280;50485;49.768;8.636;2022-09-23T16:05:27;100150.56;;;21.83
64184;BMP280;50485;49.768;8.636;2022-09-23T16:07:57;100146.66;;;21.81
64184;BMP280;50485;49.768;8.636;2022-09-23T16:10:23;100147.84;;;21.80
64184;BMP280;50485;49.768;8.636;2022-09-23T16:12:48;100140.03;;;21.78
64184;BMP280;50485;49.768;8.636;2022-09-23T16:15:16;100138.47;;;21.77
64184;BMP280;50485;49.768;8.636;2022-09-23T16:17:41;100143.13;;;21.77